Terminal Aerodrome Forecast
Issued by NWS

Home | Current Version | Previous Version | Text Only | Print | Product List | Glossary On
Versions: 1 2 3 4 5 6 7 8 9 10 11 12 13 14 15 16 17 18 19 20 21 22 23 24 25 26 27 28 29 30 31 32 33
009
FTUS43 KPAH 152217 AAA
TAFOWB
TAF AMD
KOWB 152217Z 1522/1618 26010KT 1SM -SN BR BKN016 OVC023
      TEMPO 1522/1524 28010KT 1/2SM SN FG OVC012
     FM160030 31011KT 6SM -SN BR BKN015 OVC030
     FM160200 34016KT P6SM BKN035 OVC130
     FM160900 34017KT P6SM SKC
     FM161330 33015KT P6SM -SN OVC016
      TEMPO 1616/1618 5SM -SN BKN010=

USA.gov is the U.S. government's official web portal to all federal, state and local government web resources and services.